createdAt,value
2023-02-02T00:00:39.536Z,6.81
2023-02-02T00:03:10.877Z,7.23
2023-02-02T00:05:38.776Z,6.88
2023-02-02T00:08:10.126Z,7.25
2023-02-02T00:10:45.304Z,7.20
2023-02-02T00:13:15.228Z,6.54
2023-02-02T00:15:43.058Z,6.81
2023-02-02T00:18:12.974Z,6.97
2023-02-02T00:20:40.808Z,7.04
2023-02-02T00:23:11.281Z,6.90
2023-02-02T00:25:39.130Z,5.95
2023-02-02T00:28:15.521Z,6.80
2023-02-02T00:30:43.370Z,6.62
2023-02-02T00:33:11.115Z,6.90
2023-02-02T00:35:46.479Z,6.56
2023-02-02T00:38:19.659Z,6.37
2023-02-02T00:40:47.689Z,6.41
2023-02-02T00:43:16.843Z,5.97
2023-02-02T00:45:43.724Z,6.40
2023-02-02T00:48:11.787Z,6.51
2023-02-02T00:50:42.267Z,5.09
2023-02-02T00:53:10.047Z,6.47
2023-02-02T00:55:38.115Z,6.39
2023-02-02T00:58:05.926Z,6.44
2023-02-02T01:00:35.068Z,6.52
2023-02-02T01:03:06.774Z,6.38
2023-02-02T01:05:36.964Z,6.42
2023-02-02T01:08:07.457Z,6.28
2023-02-02T01:10:44.198Z,6.20
2023-02-02T01:13:14.360Z,6.43
2023-02-02T01:15:43.598Z,6.30
2023-02-02T01:18:12.111Z,6.10
2023-02-02T01:20:40.049Z,6.47
2023-02-02T01:23:07.945Z,6.58
2023-02-02T01:25:38.602Z,6.08
2023-02-02T01:28:06.609Z,6.06
2023-02-02T01:30:34.473Z,6.21
2023-02-02T01:33:03.600Z,6.32
2023-02-02T01:35:33.504Z,6.02
2023-02-02T01:38:06.702Z,6.08
2023-02-02T01:40:34.528Z,6.26
2023-02-02T01:43:02.303Z,5.94
2023-02-02T01:45:32.992Z,6.36
2023-02-02T01:48:03.941Z,6.18
2023-02-02T01:50:36.543Z,6.05
2023-02-02T01:53:06.368Z,6.33
2023-02-02T01:55:36.110Z,6.08
2023-02-02T01:58:09.180Z,6.34
2023-02-02T02:00:37.905Z,6.27
2023-02-02T02:03:11.374Z,6.03
2023-02-02T02:05:42.309Z,6.20
2023-02-02T02:08:14.678Z,6.23
2023-02-02T02:10:47.282Z,6.14
2023-02-02T02:13:15.788Z,6.25
2023-02-02T02:16:05.868Z,6.16
2023-02-02T02:18:47.145Z,5.61
2023-02-02T02:21:45.167Z,6.28
2023-02-02T02:24:56.218Z,6.14
2023-02-02T02:27:39.905Z,6.13
2023-02-02T02:30:36.833Z,6.11
2023-02-02T02:33:07.694Z,5.84
2023-02-02T02:35:38.835Z,6.15
2023-02-02T02:38:12.441Z,5.94
2023-02-02T02:40:48.032Z,5.77
2023-02-02T02:43:22.642Z,5.96
2023-02-02T02:45:58.072Z,5.77
2023-02-02T02:48:28.434Z,6.01
2023-02-02T02:51:07.188Z,6.21
2023-02-02T02:53:35.845Z,6.11
2023-02-02T02:56:11.558Z,6.26
2023-02-02T02:58:53.970Z,5.94
2023-02-02T03:01:30.771Z,6.18
2023-02-02T03:04:11.155Z,5.98
2023-02-02T03:06:46.576Z,6.05
2023-02-02T03:09:16.783Z,6.20
2023-02-02T03:11:45.292Z,6.14
2023-02-02T03:14:16.824Z,6.30
2023-02-02T03:16:44.799Z,6.00
2023-02-02T03:19:20.460Z,6.66
2023-02-02T03:21:48.398Z,6.10
2023-02-02T03:24:16.193Z,6.35
2023-02-02T03:26:48.384Z,6.20
2023-02-02T03:29:27.002Z,6.23
2023-02-02T03:31:55.273Z,6.30
2023-02-02T03:34:24.770Z,6.19
2023-02-02T03:36:56.263Z,6.03
2023-02-02T03:39:26.917Z,6.12
2023-02-02T03:41:56.822Z,6.16
2023-02-02T03:44:31.308Z,6.00
2023-02-02T03:46:59.115Z,6.22
2023-02-02T03:49:29.538Z,6.27
2023-02-02T03:51:57.302Z,6.20
2023-02-02T03:54:27.846Z,6.23
2023-02-02T03:56:57.729Z,6.34
2023-02-02T03:59:25.961Z,6.34
2023-02-02T04:01:54.309Z,6.33
2023-02-02T04:04:30.254Z,6.29
2023-02-02T04:07:03.226Z,6.45
2023-02-02T04:09:33.546Z,5.82
2023-02-02T04:12:01.490Z,6.01
2023-02-02T04:14:29.666Z,6.33
2023-02-02T04:17:02.871Z,6.32
2023-02-02T04:19:38.276Z,6.45
2023-02-02T04:22:06.638Z,6.38
2023-02-02T04:24:38.037Z,6.21
2023-02-02T04:27:05.969Z,6.61
2023-02-02T04:29:33.908Z,6.49
2023-02-02T04:32:01.770Z,6.88
2023-02-02T04:34:30.763Z,6.73
2023-02-02T04:37:02.820Z,6.65
2023-02-02T04:39:31.189Z,6.44
2023-02-02T04:41:59.099Z,6.37
2023-02-02T04:44:29.518Z,6.54
2023-02-02T04:46:57.413Z,6.26
2023-02-02T04:49:33.543Z,6.49
2023-02-02T04:52:03.187Z,6.45
2023-02-02T04:54:31.515Z,6.37
2023-02-02T04:56:59.887Z,6.39
2023-02-02T04:59:34.578Z,6.53
2023-02-02T05:02:05.382Z,6.67
2023-02-02T05:04:33.657Z,6.29
2023-02-02T05:07:05.998Z,5.77
2023-02-02T05:09:36.413Z,6.58
2023-02-02T05:12:04.998Z,6.62
2023-02-02T05:14:34.294Z,6.41
2023-02-02T05:17:02.468Z,6.58
2023-02-02T05:19:31.191Z,6.62
2023-02-02T05:22:05.425Z,6.07
2023-02-02T05:24:34.431Z,6.68
2023-02-02T05:27:02.296Z,6.51
2023-02-02T05:29:30.867Z,6.17
2023-02-02T05:32:00.635Z,6.85
2023-02-02T05:34:33.527Z,6.16
2023-02-02T05:37:03.296Z,6.81
2023-02-02T05:39:33.662Z,6.68
2023-02-02T05:42:01.538Z,6.92
2023-02-02T05:44:29.395Z,7.00
2023-02-02T05:47:00.376Z,6.75
2023-02-02T05:49:31.620Z,6.47
2023-02-02T05:52:05.545Z,6.64
2023-02-02T05:54:33.644Z,6.92
2023-02-02T05:57:05.339Z,6.73
2023-02-02T05:59:33.177Z,7.06
2023-02-02T06:02:01.027Z,7.09
2023-02-02T06:04:28.891Z,6.83
2023-02-02T06:06:59.568Z,6.67
2023-02-02T06:09:28.948Z,6.96
2023-02-02T06:11:57.109Z,6.66
2023-02-02T06:14:30.828Z,6.54
2023-02-02T06:17:00.268Z,7.29
2023-02-02T06:19:28.499Z,7.35
2023-02-02T06:21:56.706Z,7.09
2023-02-02T06:24:24.731Z,7.03
2023-02-02T06:26:56.747Z,6.91
2023-02-02T06:29:24.978Z,6.96
2023-02-02T06:31:53.525Z,7.16
2023-02-02T06:34:22.366Z,7.22
2023-02-02T06:36:50.459Z,6.76
2023-02-02T06:39:18.584Z,7.03
2023-02-02T06:41:46.732Z,6.93
2023-02-02T06:44:20.893Z,6.99
2023-02-02T06:46:51.293Z,6.82
2023-02-02T06:49:26.459Z,7.06
2023-02-02T06:51:54.377Z,7.02
2023-02-02T06:54:22.323Z,7.26
2023-02-02T06:56:50.192Z,7.07
2023-02-02T06:59:23.025Z,7.02
2023-02-02T07:01:53.723Z,7.13
2023-02-02T07:04:22.269Z,6.85
2023-02-02T07:06:54.410Z,6.92
2023-02-02T07:09:22.608Z,7.31
2023-02-02T07:11:51.428Z,7.16
2023-02-02T07:14:20.740Z,7.39
2023-02-02T07:16:48.667Z,7.11
2023-02-02T07:19:21.466Z,6.42
2023-02-02T07:21:49.503Z,7.65
2023-02-02T07:24:17.694Z,7.73
2023-02-02T07:26:46.809Z,7.77
2023-02-02T07:29:15.245Z,7.62
2023-02-02T07:31:47.382Z,7.50
2023-02-02T07:34:21.136Z,7.06
2023-02-02T07:36:49.111Z,7.72
2023-02-02T07:39:17.461Z,7.19
2023-02-02T07:41:50.443Z,7.37
2023-02-02T07:44:21.277Z,7.29
2023-02-02T07:46:52.899Z,7.51
2023-02-02T07:49:21.405Z,7.16
2023-02-02T07:51:52.173Z,7.06
2023-02-02T07:54:21.922Z,7.19
2023-02-02T07:56:52.768Z,7.31
2023-02-02T07:59:20.705Z,7.09
2023-02-02T08:01:52.966Z,7.07
2023-02-02T08:04:20.937Z,6.91
2023-02-02T08:06:49.146Z,6.99
2023-02-02T08:09:17.083Z,7.34
2023-02-02T08:11:45.039Z,7.76
2023-02-02T08:14:14.377Z,6.96
2023-02-02T08:16:42.343Z,7.19
2023-02-02T08:19:13.749Z,7.08
2023-02-02T08:21:41.599Z,7.21
2023-02-02T08:24:09.652Z,7.33
2023-02-02T08:26:45.017Z,7.41
2023-02-02T08:29:18.150Z,7.74
2023-02-02T08:31:48.368Z,7.59
2023-02-02T08:34:23.049Z,7.47
2023-02-02T08:36:53.477Z,7.74
2023-02-02T08:39:24.688Z,7.66
2023-02-02T08:41:55.851Z,7.49
2023-02-02T08:44:26.414Z,7.67
2023-02-02T08:46:56.046Z,6.97
2023-02-02T08:49:25.951Z,6.97
2023-02-02T08:51:57.783Z,7.34
2023-02-02T08:54:38.299Z,7.42
2023-02-02T08:57:08.911Z,7.69
2023-02-02T08:59:36.827Z,7.28
2023-02-02T09:02:05.563Z,8.22
2023-02-02T09:04:40.457Z,7.85
2023-02-02T09:07:08.923Z,7.69
2023-02-02T09:09:39.552Z,7.15
2023-02-02T09:12:15.545Z,7.10
2023-02-02T09:14:48.377Z,6.76
2023-02-02T09:17:18.828Z,7.33
2023-02-02T09:19:53.760Z,7.27
2023-02-02T09:22:22.071Z,6.89
2023-02-02T09:24:51.753Z,7.35
2023-02-02T09:27:22.506Z,7.66
2023-02-02T09:29:56.535Z,7.32
2023-02-02T09:32:24.633Z,7.58
2023-02-02T09:34:56.691Z,7.49
2023-02-02T09:37:32.969Z,7.54
2023-02-02T09:40:03.666Z,7.56
2023-02-02T09:42:45.126Z,7.55
2023-02-02T09:45:20.398Z,7.51
2023-02-02T09:47:56.524Z,7.38
2023-02-02T09:50:39.643Z,7.63
2023-02-02T09:53:15.726Z,7.49
2023-02-02T09:55:45.751Z,7.25
2023-02-02T09:58:20.583Z,7.27
2023-02-02T10:01:01.844Z,7.41
2023-02-02T10:03:40.499Z,7.76
2023-02-02T10:06:25.963Z,7.58
2023-02-02T10:08:59.328Z,7.28
2023-02-02T10:11:37.482Z,7.23
2023-02-02T10:14:13.584Z,7.32
2023-02-02T10:16:42.002Z,7.09
2023-02-02T10:19:15.680Z,7.29
2023-02-02T10:21:53.986Z,7.45
2023-02-02T10:24:24.795Z,7.36
2023-02-02T10:26:55.077Z,7.29
2023-02-02T10:29:48.631Z,7.25
2023-02-02T10:32:23.661Z,7.44
2023-02-02T10:35:14.493Z,7.60
2023-02-02T10:37:51.789Z,7.30
2023-02-02T10:40:31.190Z,7.49
2023-02-02T10:43:33.565Z,7.32
2023-02-02T10:46:04.995Z,7.48
2023-02-02T10:48:35.941Z,7.72
2023-02-02T10:51:08.399Z,7.52
2023-02-02T10:53:37.939Z,7.85
2023-02-02T10:56:12.031Z,7.60
2023-02-02T10:58:51.566Z,7.55
2023-02-02T11:01:22.785Z,7.52
2023-02-02T11:04:14.204Z,7.63
2023-02-02T11:06:52.559Z,7.64
2023-02-02T11:09:26.011Z,7.59
2023-02-02T11:12:01.980Z,7.39
2023-02-02T11:14:45.175Z,7.62
2023-02-02T11:17:20.577Z,7.85
2023-02-02T11:19:50.989Z,7.55
2023-02-02T11:22:30.572Z,7.51
2023-02-02T11:25:05.205Z,7.69
2023-02-02T11:27:34.825Z,7.68
2023-02-02T11:30:12.539Z,7.96
2023-02-02T11:32:41.545Z,7.35
2023-02-02T11:35:21.954Z,7.90
2023-02-02T11:38:03.104Z,7.56
2023-02-02T11:40:36.286Z,7.52
2023-02-02T11:43:16.580Z,7.60
2023-02-02T11:45:49.577Z,7.40
2023-02-02T11:48:19.327Z,7.42
2023-02-02T11:50:50.579Z,7.39
2023-02-02T11:53:29.129Z,8.00
2023-02-02T11:56:10.707Z,7.59
2023-02-02T11:58:45.728Z,6.15
2023-02-02T12:01:27.724Z,6.80
2023-02-02T12:03:59.821Z,6.98
2023-02-02T12:06:30.598Z,7.47
2023-02-02T12:09:05.268Z,7.38
2023-02-02T12:11:42.801Z,7.25
2023-02-02T12:14:28.088Z,7.31
2023-02-02T12:17:07.946Z,7.25
2023-02-02T12:19:47.526Z,7.34
2023-02-02T12:22:36.284Z,6.79
2023-02-02T12:25:11.196Z,7.34
2023-02-02T12:27:47.973Z,7.23
2023-02-02T12:30:26.447Z,7.26
2023-02-02T12:33:14.985Z,7.24
2023-02-02T12:35:55.221Z,7.37
2023-02-02T12:38:31.608Z,7.15
2023-02-02T12:41:23.720Z,7.34
2023-02-02T12:44:00.605Z,6.69
2023-02-02T12:46:41.559Z,7.32
2023-02-02T12:49:32.655Z,7.08
2023-02-02T12:52:23.459Z,6.96
2023-02-02T12:55:13.561Z,6.48
2023-02-02T12:57:57.801Z,6.60
2023-02-02T13:00:54.646Z,6.99
2023-02-02T13:03:30.367Z,6.90
2023-02-02T13:06:17.298Z,7.05
2023-02-02T13:08:54.598Z,7.06
2023-02-02T13:11:35.087Z,7.26
2023-02-02T13:14:14.189Z,7.19
2023-02-02T13:16:49.886Z,7.45
2023-02-02T13:19:27.644Z,7.40
2023-02-02T13:22:00.671Z,6.98
2023-02-02T13:24:33.708Z,7.83
2023-02-02T13:27:09.515Z,8.10
2023-02-02T13:29:47.845Z,7.89
2023-02-02T13:32:22.696Z,8.12
2023-02-02T13:34:53.812Z,7.08
2023-02-02T13:37:27.645Z,7.11
2023-02-02T13:39:57.862Z,6.81
2023-02-02T13:42:38.121Z,6.93
2023-02-02T13:45:18.792Z,7.21
2023-02-02T13:47:55.286Z,7.74
2023-02-02T13:50:30.147Z,7.93
2023-02-02T13:53:17.330Z,7.94
2023-02-02T13:56:04.012Z,7.61
2023-02-02T13:58:55.126Z,7.94
2023-02-02T14:01:23.584Z,7.67
2023-02-02T14:03:55.708Z,7.29
2023-02-02T14:06:33.069Z,7.71
2023-02-02T14:09:06.648Z,7.55
2023-02-02T14:11:37.332Z,6.37
2023-02-02T14:14:29.771Z,7.64
2023-02-02T14:16:57.792Z,7.69
2023-02-02T14:19:57.976Z,7.83
2023-02-02T14:22:44.624Z,7.42
2023-02-02T14:25:55.678Z,7.49
2023-02-02T14:28:47.888Z,7.55
2023-02-02T14:31:44.292Z,7.52
2023-02-02T14:34:39.529Z,7.50
2023-02-02T14:37:43.005Z,7.53
2023-02-02T14:40:25.527Z,7.55
2023-02-02T14:43:19.129Z,7.65
2023-02-02T14:45:48.781Z,7.69
2023-02-02T14:48:21.183Z,8.09
2023-02-02T14:50:54.089Z,7.62
2023-02-02T14:53:29.188Z,7.93
2023-02-02T14:56:06.769Z,7.28
2023-02-02T14:58:40.297Z,7.85
2023-02-02T15:01:28.046Z,7.72
2023-02-02T15:03:57.433Z,7.72
2023-02-02T15:06:34.619Z,7.46
2023-02-02T15:09:31.222Z,7.70
2023-02-02T15:12:35.626Z,7.59
2023-02-02T15:15:25.256Z,8.12
2023-02-02T15:18:16.696Z,7.68
2023-02-02T15:20:48.899Z,7.31
2023-02-02T15:23:25.906Z,7.67
2023-02-02T15:26:02.369Z,7.87
2023-02-02T15:28:39.470Z,7.67
2023-02-02T15:31:16.353Z,7.41
2023-02-02T15:33:51.503Z,7.57
2023-02-02T15:36:25.581Z,7.71
2023-02-02T15:39:00.866Z,7.59
2023-02-02T15:41:38.660Z,7.70
2023-02-02T15:44:19.736Z,7.74
2023-02-02T15:46:49.088Z,8.32
2023-02-02T15:49:34.647Z,8.12
2023-02-02T15:52:11.108Z,8.38
2023-02-02T15:54:43.633Z,8.61
2023-02-02T15:57:26.091Z,8.06
2023-02-02T15:59:57.039Z,8.30
2023-02-02T16:02:31.335Z,7.84
2023-02-02T16:05:09.548Z,7.61
2023-02-02T16:07:37.455Z,8.04
2023-02-02T16:10:07.229Z,8.14
2023-02-02T16:12:37.113Z,7.96
2023-02-02T16:15:06.636Z,7.74
2023-02-02T16:17:43.366Z,7.86
2023-02-02T16:20:14.702Z,6.81
2023-02-02T16:22:56.121Z,7.76
2023-02-02T16:25:25.190Z,7.94
2023-02-02T16:27:54.699Z,7.69
2023-02-02T16:30:33.486Z,7.10
2023-02-02T16:33:28.167Z,7.99
2023-02-02T16:35:57.283Z,7.56
2023-02-02T16:38:32.349Z,7.40
2023-02-02T16:41:06.481Z,7.53
2023-02-02T16:43:38.863Z,7.41
2023-02-02T16:46:08.989Z,7.28
2023-02-02T16:48:38.668Z,7.65
2023-02-02T16:51:33.578Z,7.66
2023-02-02T16:54:06.456Z,7.44
2023-02-02T16:56:36.666Z,7.17
2023-02-02T16:59:09.603Z,7.09
2023-02-02T17:01:39.808Z,7.02
2023-02-02T17:04:15.980Z,7.30
2023-02-02T17:06:52.335Z,7.53
2023-02-02T17:09:36.308Z,7.53
2023-02-02T17:12:16.793Z,7.42
2023-02-02T17:14:54.725Z,7.66
2023-02-02T17:17:22.671Z,7.56
2023-02-02T17:19:51.263Z,7.36
2023-02-02T17:22:24.202Z,7.38
2023-02-02T17:24:56.865Z,7.31
2023-02-02T17:27:28.166Z,7.12
2023-02-02T17:29:59.207Z,7.76
2023-02-02T17:32:27.519Z,7.51
2023-02-02T17:35:04.503Z,7.41
2023-02-02T17:37:34.482Z,7.47
2023-02-02T17:40:07.111Z,7.81
2023-02-02T17:42:35.854Z,7.29
2023-02-02T17:45:07.422Z,7.47
2023-02-02T17:47:37.923Z,7.64
2023-02-02T17:50:06.529Z,7.56
2023-02-02T17:52:34.833Z,6.58
2023-02-02T17:55:05.873Z,6.97
2023-02-02T17:57:33.726Z,5.81
2023-02-02T18:00:04.848Z,7.20
2023-02-02T18:02:35.118Z,6.93
2023-02-02T18:05:03.746Z,6.93
2023-02-02T18:07:31.992Z,6.80
2023-02-02T18:10:01.680Z,7.13
2023-02-02T18:12:37.514Z,6.82
2023-02-02T18:15:14.287Z,7.05
2023-02-02T18:17:45.048Z,7.24
2023-02-02T18:20:16.115Z,7.41
2023-02-02T18:22:48.738Z,6.59
2023-02-02T18:25:16.739Z,7.33
2023-02-02T18:27:46.872Z,6.91
2023-02-02T18:30:15.507Z,6.87
2023-02-02T18:32:46.629Z,7.06
2023-02-02T18:35:14.666Z,6.98
2023-02-02T18:37:45.126Z,7.13
2023-02-02T18:40:14.118Z,7.27
2023-02-02T18:42:42.208Z,7.09
2023-02-02T18:45:11.111Z,6.85
2023-02-02T18:47:41.332Z,7.06
2023-02-02T18:50:12.375Z,7.17
2023-02-02T18:52:40.221Z,6.66
2023-02-02T18:55:17.977Z,6.95
2023-02-02T18:57:46.498Z,7.09
2023-02-02T19:00:17.371Z,7.07
2023-02-02T19:02:48.342Z,6.79
2023-02-02T19:05:40.211Z,7.20
2023-02-02T19:08:08.168Z,6.54
2023-02-02T19:10:37.949Z,7.35
2023-02-02T19:13:18.135Z,6.85
2023-02-02T19:15:51.091Z,7.08
2023-02-02T19:18:24.243Z,7.10
2023-02-02T19:20:54.787Z,6.98
2023-02-02T19:23:24.352Z,7.12
2023-02-02T19:25:54.156Z,7.05
2023-02-02T19:28:24.681Z,7.41
2023-02-02T19:30:55.916Z,6.99
2023-02-02T19:33:29.725Z,7.12
2023-02-02T19:36:00.932Z,7.44
2023-02-02T19:38:33.782Z,7.39
2023-02-02T19:41:04.292Z,7.29
2023-02-02T19:43:33.239Z,7.47
2023-02-02T19:46:01.667Z,7.27
2023-02-02T19:48:35.596Z,7.40
2023-02-02T19:51:27.910Z,6.95
2023-02-02T19:53:58.921Z,7.34
2023-02-02T19:56:39.655Z,6.99
2023-02-02T19:59:12.414Z,7.22
2023-02-02T20:01:40.635Z,6.47
2023-02-02T20:04:15.699Z,7.38
2023-02-02T20:06:58.038Z,6.77
2023-02-02T20:09:37.304Z,7.27
2023-02-02T20:12:22.231Z,7.20
2023-02-02T20:14:50.409Z,7.32
2023-02-02T20:17:29.248Z,7.26
2023-02-02T20:19:57.156Z,6.63
2023-02-02T20:22:29.773Z,7.26
2023-02-02T20:24:58.717Z,7.18
2023-02-02T20:27:40.647Z,7.33
2023-02-02T20:30:31.019Z,7.60
2023-02-02T20:33:01.532Z,7.16
2023-02-02T20:35:36.770Z,7.71
2023-02-02T20:38:21.763Z,7.33
2023-02-02T20:40:49.669Z,7.41
2023-02-02T20:43:20.034Z,6.63
2023-02-02T20:45:51.947Z,6.94
2023-02-02T20:48:19.906Z,7.18
2023-02-02T20:50:48.086Z,7.47
2023-02-02T20:53:23.490Z,7.75
2023-02-02T20:55:57.254Z,7.74
2023-02-02T20:58:29.290Z,7.85
2023-02-02T21:01:00.355Z,7.71
2023-02-02T21:03:32.706Z,7.91
2023-02-02T21:06:01.435Z,7.61
2023-02-02T21:08:30.673Z,7.22
2023-02-02T21:10:58.521Z,7.61
2023-02-02T21:13:29.508Z,7.63
2023-02-02T21:15:59.115Z,7.57
2023-02-02T21:18:27.247Z,7.32
2023-02-02T21:20:56.915Z,7.63
2023-02-02T21:23:24.956Z,7.91
2023-02-02T21:26:07.174Z,7.51
2023-02-02T21:28:39.603Z,7.91
2023-02-02T21:31:12.176Z,7.59
2023-02-02T21:33:45.605Z,7.79
2023-02-02T21:36:28.108Z,7.58
2023-02-02T21:39:04.212Z,7.55
2023-02-02T21:41:36.337Z,7.34
2023-02-02T21:44:13.010Z,7.73
2023-02-02T21:46:44.499Z,7.29
2023-02-02T21:49:23.260Z,7.25
2023-02-02T21:51:52.284Z,7.58
2023-02-02T21:54:25.477Z,7.59
2023-02-02T21:56:57.330Z,7.05
2023-02-02T21:59:30.257Z,7.31
2023-02-02T22:01:58.427Z,7.30
2023-02-02T22:04:28.523Z,7.65
2023-02-02T22:07:01.523Z,7.22
2023-02-02T22:09:31.784Z,5.80
2023-02-02T22:12:03.561Z,7.39
2023-02-02T22:14:38.423Z,7.46
2023-02-02T22:17:20.010Z,7.47
2023-02-02T22:19:48.100Z,7.24
2023-02-02T22:22:20.316Z,7.02
2023-02-02T22:24:54.404Z,7.28
2023-02-02T22:27:40.077Z,7.20
2023-02-02T22:30:19.535Z,7.41
2023-02-02T22:33:03.764Z,7.54
2023-02-02T22:35:31.601Z,7.50
2023-02-02T22:37:59.366Z,7.35
2023-02-02T22:40:29.910Z,7.65
2023-02-02T22:43:01.218Z,7.45
2023-02-02T22:45:30.520Z,7.20
2023-02-02T22:47:59.607Z,7.20
2023-02-02T22:50:43.488Z,6.88
2023-02-02T22:53:12.477Z,7.42
2023-02-02T22:55:41.584Z,7.39
2023-02-02T22:58:14.073Z,7.18
2023-02-02T23:00:48.020Z,7.21
2023-02-02T23:03:15.906Z,7.09
2023-02-02T23:05:49.414Z,7.37
2023-02-02T23:08:22.084Z,6.89
2023-02-02T23:10:52.438Z,7.30
2023-02-02T23:13:24.357Z,7.71
2023-02-02T23:16:13.310Z,7.75
2023-02-02T23:18:43.786Z,7.39
2023-02-02T23:21:17.643Z,7.47
2023-02-02T23:23:45.448Z,6.89
2023-02-02T23:26:13.301Z,7.07
2023-02-02T23:28:42.986Z,7.19
2023-02-02T23:31:12.774Z,7.20
2023-02-02T23:33:45.359Z,7.08
2023-02-02T23:36:13.414Z,6.96
2023-02-02T23:38:44.113Z,6.96
2023-02-02T23:41:13.585Z,6.96
2023-02-02T23:43:44.077Z,7.15
2023-02-02T23:46:14.961Z,7.07
2023-02-02T23:48:45.540Z,7.00
2023-02-02T23:51:15.348Z,7.60
2023-02-02T23:53:45.333Z,6.96
2023-02-02T23:56:16.482Z,7.14
2023-02-02T23:58:45.592Z,7.27
